Time;durP1;ratioP1;P1;durP2;ratioP2;P2;SDS_P1;SDS_P2;PMS_P1;PMS_P2;Temp;Humidity;BMP_temperature;BMP_pressure;BME280_temperature;BME280_humidity;BME280_pressure;Samples;Min_cycle;Max_cycle;Signal;HPM_P1;HPM_P2
2021/06/05 00:00:10;;;;;;;7.47;6.07;;;;;;;;;;346576;28;1098;-67
2021/06/05 00:00:24;;;;;;;6.78;6.07;;;;;;;;;;345000;28;40074;-67
2021/06/05 00:00:38;;;;;;;7.05;6.25;;;;;;;;;;345744;28;18356;-68
2021/06/05 00:00:51;;;;;;;7.35;6.00;;;;;;;;;;345767;28;17412;-68
2021/06/05 00:01:08;;;;;;;7.47;5.90;;;;;;;;;;346651;28;1184;-68
2021/06/05 00:01:23;;;;;;;7.70;6.47;;;;;;;;;;344215;28;62893;-68
2021/06/05 00:01:41;;;;;;;7.22;6.53;;;;;;;;;;345803;28;17305;-67
2021/06/05 00:01:54;;;;;;;6.57;5.97;;;;;;;;;;344469;28;63543;-68
2021/06/05 00:02:07;;;;;;;6.88;6.00;;;;;;;;;;346460;28;1041;-68
2021/06/05 00:02:22;;;;;;;7.13;6.03;;;;;;;;;;346335;28;1153;-67
2021/06/05 00:02:34;;;;;;;6.93;6.25;;;;;;;;;;345292;28;41417;-68
2021/06/05 00:02:46;;;;;;;7.88;6.50;;;;;;;;;;346627;28;1061;-68
2021/06/05 00:02:59;;;;;;;8.20;6.53;;;;;;;;;;346481;28;1090;-69
2021/06/05 00:03:12;;;;;;;7.20;6.50;;;;;;;;;;346451;28;1059;-68
2021/06/05 00:03:25;;;;;;;7.07;6.38;;;;;;;;;;345945;28;17763;-68
2021/06/05 00:03:37;;;;;;;7.15;6.45;;;;;;;;;;346496;28;1102;-69
2021/06/05 00:03:50;;;;;;;6.90;6.20;;;;;;;;;;346616;28;1922;-68
2021/06/05 00:04:02;;;;;;;7.22;6.53;;;;;;;;;;346630;28;1098;-68
2021/06/05 00:04:15;;;;;;;7.18;6.47;;;;;;;;;;346421;28;1202;-68
2021/06/05 00:04:27;;;;;;;7.20;6.40;;;;;;;;;;346540;28;988;-68
2021/06/05 00:04:39;;;;;;;7.40;6.30;;;;;;;;;;346473;28;1177;-68
2021/06/05 00:04:57;;;;;;;6.85;6.15;;;;;;;;;;346580;28;1090;-68
2021/06/05 00:05:10;;;;;;;6.95;5.75;;;;;;;;;;344338;28;63440;-67
2021/06/05 00:05:23;;;;;;;6.97;5.63;;;;;;;;;;346504;28;1103;-69
2021/06/05 00:05:39;;;;;;;6.45;5.85;;;;;;;;;;345985;28;16799;-69
2021/06/05 00:05:57;;;;;;;7.10;6.40;;;;;;;;;;344527;28;64013;-67
2021/06/05 00:06:10;;;;;;;6.68;5.97;;;;;;;;;;344320;28;63742;-68
2021/06/05 00:06:24;;;;;;;6.25;5.65;;;;;;;;;;346581;28;2088;-69
2021/06/05 00:06:36;;;;;;;7.00;5.70;;;;;;;;;;345979;28;16719;-67
2021/06/05 00:06:49;;;;;;;7.28;5.80;;;;;;;;;;346575;28;1250;-69
2021/06/05 00:07:04;;;;;;;6.40;5.78;;;;;;;;;;343074;28;64443;-68
2021/06/05 00:07:16;;;;;;;6.30;5.70;;;;;;;;;;345156;28;1077;-68
2021/06/05 00:07:28;;;;;;;6.20;5.60;;;;;;;;;;345128;28;1213;-68
2021/06/05 00:07:40;;;;;;;6.22;5.63;;;;;;;;;;345021;28;1003;-68
2021/06/05 00:07:53;;;;;;;6.30;5.70;;;;;;;;;;345120;28;1074;-68
2021/06/05 00:08:06;;;;;;;6.53;5.93;;;;;;;;;;345041;28;1090;-67
2021/06/05 00:08:20;;;;;;;6.57;5.97;;;;;;;;;;344816;28;16701;-68
2021/06/05 00:08:33;;;;;;;8.38;6.00;;;;;;;;;;344729;28;16696;-71
2021/06/05 00:08:47;;;;;;;8.90;6.30;;;;;;;;;;344010;28;40537;-68
2021/06/05 00:08:59;;;;;;;6.95;5.90;;;;;;;;;;345417;28;1133;-68
2021/06/05 00:09:12;;;;;;;6.40;5.80;;;;;;;;;;346346;28;1284;-68
2021/06/05 00:09:24;;;;;;;6.50;5.90;;;;;;;;;;346407;28;1020;-68
2021/06/05 00:09:37;;;;;;;6.68;6.07;;;;;;;;;;346377;28;1046;-68
2021/06/05 00:09:49;;;;;;;6.57;5.97;;;;;;;;;;346774;28;1075;-68
2021/06/05 00:10:04;;;;;;;6.80;6.10;;;;;;;;;;346838;28;1062;-68
2021/06/05 00:10:18;;;;;;;7.05;6.35;;;;;;;;;;345449;28;41222;-68
2021/06/05 00:10:32;;;;;;;6.97;6.28;;;;;;;;;;346173;28;18128;-70
2021/06/05 00:10:46;;;;;;;6.32;5.72;;;;;;;;;;345105;28;40770;-67
2021/06/05 00:11:01;;;;;;;6.03;5.43;;;;;;;;;;345926;28;17103;-68
2021/06/05 00:11:14;;;;;;;6.03;5.43;;;;;;;;;;345014;28;39679;-70
2021/06/05 00:11:28;;;;;;;6.28;5.50;;;;;;;;;;346474;28;1221;-68
2021/06/05 00:11:42;;;;;;;6.38;5.50;;;;;;;;;;345338;28;39790;-68
2021/06/05 00:11:54;;;;;;;6.53;5.22;;;;;;;;;;346403;28;1205;-69
2021/06/05 00:12:07;;;;;;;6.07;5.20;;;;;;;;;;346394;28;1147;-68
2021/06/05 00:12:21;;;;;;;5.78;5.18;;;;;;;;;;346388;28;1176;-67
2021/06/05 00:12:33;;;;;;;6.05;5.45;;;;;;;;;;344520;28;16696;-68
2021/06/05 00:12:46;;;;;;;6.20;5.60;;;;;;;;;;345086;28;1060;-68
2021/06/05 00:12:58;;;;;;;6.18;5.57;;;;;;;;;;345089;28;1077;-68
2021/06/05 00:13:13;;;;;;;6.05;5.45;;;;;;;;;;344959;28;1059;-69
2021/06/05 00:13:27;;;;;;;5.65;5.15;;;;;;;;;;344374;28;17144;-68
2021/06/05 00:13:44;;;;;;;5.75;5.25;;;;;;;;;;343035;28;18714;-68
2021/06/05 00:13:57;;;;;;;5.93;5.40;;;;;;;;;;341724;28;63615;-68
2021/06/05 00:14:10;;;;;;;6.00;5.40;;;;;;;;;;343634;28;1150;-68
2021/06/05 00:14:22;;;;;;;6.00;5.40;;;;;;;;;;343868;28;1126;-68
2021/06/05 00:14:34;;;;;;;5.82;5.22;;;;;;;;;;344753;28;1177;-67
2021/06/05 00:14:47;;;;;;;6.20;5.20;;;;;;;;;;345198;28;1168;-68
2021/06/05 00:14:59;;;;;;;5.95;5.03;;;;;;;;;;345093;28;1157;-68
2021/06/05 00:15:14;;;;;;;6.07;5.13;;;;;;;;;;344980;28;1037;-67
2021/06/05 00:15:32;;;;;;;6.80;5.30;;;;;;;;;;343757;28;40922;-67
2021/06/05 00:15:45;;;;;;;6.13;5.35;;;;;;;;;;343896;28;63901;-68
2021/06/05 00:15:58;;;;;;;5.93;5.18;;;;;;;;;;346324;28;1128;-68
2021/06/05 00:16:12;;;;;;;5.97;4.95;;;;;;;;;;346270;28;1073;-68
2021/06/05 00:16:26;;;;;;;5.43;4.82;;;;;;;;;;345025;28;41067;-67
2021/06/05 00:16:41;;;;;;;5.20;4.70;;;;;;;;;;345791;28;16676;-68
2021/06/05 00:16:53;;;;;;;5.22;4.72;;;;;;;;;;344999;28;41056;-68
2021/06/05 00:17:06;;;;;;;5.38;4.88;;;;;;;;;;346332;28;1096;-68
2021/06/05 00:17:18;;;;;;;5.55;4.97;;;;;;;;;;346220;28;1184;-68
2021/06/05 00:17:30;;;;;;;5.53;5.03;;;;;;;;;;346670;28;1101;-68
2021/06/05 00:17:42;;;;;;;5.30;4.80;;;;;;;;;;346477;28;995;-67
2021/06/05 00:17:54;;;;;;;4.88;4.47;;;;;;;;;;346638;28;1123;-68
2021/06/05 00:18:07;;;;;;;4.85;4.35;;;;;;;;;;346313;28;1108;-68
2021/06/05 00:18:19;;;;;;;4.88;4.38;;;;;;;;;;346633;28;1080;-67
2021/06/05 00:18:32;;;;;;;5.03;4.53;;;;;;;;;;346576;28;1051;-68
2021/06/05 00:18:45;;;;;;;5.00;4.50;;;;;;;;;;346407;28;1189;-68
2021/06/05 00:18:57;;;;;;;5.00;4.50;;;;;;;;;;346483;28;1095;-67
2021/06/05 00:19:11;;;;;;;5.20;4.70;;;;;;;;;;346492;28;1062;-68
2021/06/05 00:19:23;;;;;;;5.28;4.78;;;;;;;;;;346118;28;16214;-67
2021/06/05 00:19:35;;;;;;;5.15;4.65;;;;;;;;;;346218;28;1078;-67
2021/06/05 00:19:47;;;;;;;5.20;4.70;;;;;;;;;;346423;28;1280;-69
2021/06/05 00:19:59;;;;;;;5.10;4.60;;;;;;;;;;346473;28;1003;-67
2021/06/05 00:20:12;;;;;;;5.05;4.60;;;;;;;;;;346549;28;1077;-68
2021/06/05 00:20:28;;;;;;;5.18;4.68;;;;;;;;;;346501;28;1014;-68
2021/06/05 00:20:41;;;;;;;5.25;4.70;;;;;;;;;;344387;28;63724;-68
2021/06/05 00:20:54;;;;;;;5.50;4.90;;;;;;;;;;345176;28;1098;-68
2021/06/05 00:21:06;;;;;;;5.47;4.90;;;;;;;;;;345100;28;1347;-68
2021/06/05 00:21:19;;;;;;;5.15;4.65;;;;;;;;;;345174;28;1076;-68
2021/06/05 00:21:31;;;;;;;5.32;4.63;;;;;;;;;;345165;28;1057;-68
2021/06/05 00:21:44;;;;;;;5.80;4.97;;;;;;;;;;344854;28;1288;-69
2021/06/05 00:21:56;;;;;;;5.40;4.82;;;;;;;;;;345082;28;1154;-73
2021/06/05 00:22:08;;;;;;;5.18;4.68;;;;;;;;;;345151;28;1114;-69
2021/06/05 00:22:20;;;;;;;5.10;4.60;;;;;;;;;;344885;28;1718;-68
2021/06/05 00:22:32;;;;;;;5.20;4.70;;;;;;;;;;345270;28;1133;-69
2021/06/05 00:22:44;;;;;;;5.45;4.75;;;;;;;;;;344976;28;1157;-69
2021/06/05 00:23:02;;;;;;;5.72;4.80;;;;;;;;;;346028;28;1172;-68
2021/06/05 00:23:17;;;;;;;5.32;4.82;;;;;;;;;;344263;28;62929;-69
2021/06/05 00:23:29;;;;;;;5.45;4.95;;;;;;;;;;346229;28;17084;-69
2021/06/05 00:23:41;;;;;;;5.40;4.90;;;;;;;;;;346301;28;1212;-71
2021/06/05 00:23:54;;;;;;;5.40;4.85;;;;;;;;;;346685;28;1091;-74
2021/06/05 00:24:07;;;;;;;5.35;4.75;;;;;;;;;;346418;28;1303;-69
2021/06/05 00:24:19;;;;;;;6.13;4.65;;;;;;;;;;346666;28;1365;-68
2021/06/05 00:24:31;;;;;;;5.70;4.75;;;;;;;;;;346497;28;986;-68
2021/06/05 00:24:43;;;;;;;5.78;5.20;;;;;;;;;;346396;28;1071;-69
2021/06/05 00:24:55;;;;;;;6.10;5.45;;;;;;;;;;346625;28;1193;-68
2021/06/05 00:25:13;;;;;;;6.97;5.35;;;;;;;;;;346230;28;1153;-68
2021/06/05 00:25:25;;;;;;;7.55;5.50;;;;;;;;;;344553;28;64096;-68
2021/06/05 00:25:37;;;;;;;6.82;5.75;;;;;;;;;;346227;28;1002;-68
2021/06/05 00:25:50;;;;;;;7.30;5.68;;;;;;;;;;346716;28;1218;-68
2021/06/05 00:26:03;;;;;;;6.25;5.45;;;;;;;;;;346530;28;1250;-69
2021/06/05 00:26:15;;;;;;;5.90;5.30;;;;;;;;;;346636;28;1215;-67
2021/06/05 00:26:28;;;;;;;6.97;5.90;;;;;;;;;;346192;28;1066;-68
2021/06/05 00:26:40;;;;;;;7.13;6.03;;;;;;;;;;346289;28;993;-69
2021/06/05 00:26:53;;;;;;;7.03;6.32;;;;;;;;;;346438;28;1103;-69
2021/06/05 00:27:05;;;;;;;7.00;6.40;;;;;;;;;;346519;28;1042;-69
2021/06/05 00:27:18;;;;;;;7.22;6.53;;;;;;;;;;346733;28;1022;-69
2021/06/05 00:27:30;;;;;;;7.53;6.63;;;;;;;;;;346521;28;1054;-69
2021/06/05 00:27:42;;;;;;;7.60;6.70;;;;;;;;;;346690;28;1188;-68
2021/06/05 00:27:55;;;;;;;7.75;6.90;;;;;;;;;;346531;28;1059;-68
2021/06/05 00:28:07;;;;;;;7.60;6.90;;;;;;;;;;346640;28;1118;-68
2021/06/05 00:28:21;;;;;;;7.38;6.68;;;;;;;;;;346522;28;1216;-68
2021/06/05 00:28:33;;;;;;;7.15;6.45;;;;;;;;;;346465;28;1191;-68
2021/06/05 00:28:45;;;;;;;7.15;6.45;;;;;;;;;;344972;28;2465;-68
2021/06/05 00:28:57;;;;;;;7.13;6.43;;;;;;;;;;345059;28;1150;-68
2021/06/05 00:29:09;;;;;;;7.75;6.70;;;;;;;;;;345027;28;1071;-67
2021/06/05 00:29:22;;;;;;;7.78;6.47;;;;;;;;;;345138;28;988;-69
2021/06/05 00:29:34;;;;;;;7.28;6.30;;;;;;;;;;345031;28;1009;-69
2021/06/05 00:29:46;;;;;;;6.88;6.18;;;;;;;;;;345185;28;1281;-67
2021/06/05 00:29:58;;;;;;;6.90;6.20;;;;;;;;;;345041;28;1074;-68
2021/06/05 00:30:10;;;;;;;6.82;6.13;;;;;;;;;;345093;28;1099;-68
2021/06/05 00:30:23;;;;;;;6.75;6.05;;;;;;;;;;345022;28;1196;-69
2021/06/05 00:30:36;;;;;;;7.00;6.25;;;;;;;;;;344554;28;16950;-71
2021/06/05 00:30:48;;;;;;;7.07;6.22;;;;;;;;;;345830;28;1091;-68
2021/06/05 00:31:00;;;;;;;6.75;6.05;;;;;;;;;;346522;28;1134;-72
2021/06/05 00:31:13;;;;;;;6.85;6.18;;;;;;;;;;346388;28;1046;-73
2021/06/05 00:31:25;;;;;;;6.97;6.28;;;;;;;;;;346258;28;1016;-68
2021/06/05 00:31:37;;;;;;;6.93;6.22;;;;;;;;;;346394;28;1184;-73
2021/06/05 00:31:50;;;;;;;7.05;6.35;;;;;;;;;;346294;28;1071;-68
2021/06/05 00:32:02;;;;;;;6.90;6.20;;;;;;;;;;346634;28;1082;-68
2021/06/05 00:32:14;;;;;;;6.82;6.13;;;;;;;;;;346232;28;1179;-68
2021/06/05 00:32:27;;;;;;;6.62;5.92;;;;;;;;;;346497;28;1181;-68
2021/06/05 00:32:39;;;;;;;6.65;6.05;;;;;;;;;;346360;28;2105;-69
2021/06/05 00:32:51;;;;;;;6.43;5.82;;;;;;;;;;346284;28;1146;-68
2021/06/05 00:33:04;;;;;;;6.80;5.95;;;;;;;;;;346326;28;1206;-69
2021/06/05 00:33:16;;;;;;;7.20;6.18;;;;;;;;;;346313;28;1150;-68
2021/06/05 00:33:28;;;;;;;7.97;6.20;;;;;;;;;;346605;28;1339;-68
2021/06/05 00:33:40;;;;;;;7.40;6.20;;;;;;;;;;346354;28;1074;-68
2021/06/05 00:33:53;;;;;;;7.63;6.53;;;;;;;;;;346793;28;1139;-69
2021/06/05 00:34:05;;;;;;;7.57;6.85;;;;;;;;;;346607;28;1095;-69
2021/06/05 00:34:17;;;;;;;7.50;6.70;;;;;;;;;;346510;28;1174;-68
2021/06/05 00:34:29;;;;;;;7.40;6.70;;;;;;;;;;346502;28;1166;-68
2021/06/05 00:34:41;;;;;;;7.64;6.90;;;;;;;;;;346300;28;1245;-68
2021/06/05 00:34:53;;;;;;;7.97;7.18;;;;;;;;;;346453;28;1186;-69
2021/06/05 00:35:06;;;;;;;7.93;7.07;;;;;;;;;;346428;28;1066;-68
2021/06/05 00:35:18;;;;;;;7.70;6.90;;;;;;;;;;346619;28;1295;-68
2021/06/05 00:35:31;;;;;;;7.65;6.85;;;;;;;;;;346581;28;1137;-68
2021/06/05 00:35:44;;;;;;;7.72;6.93;;;;;;;;;;346440;28;1085;-68
2021/06/05 00:35:56;;;;;;;9.02;7.20;;;;;;;;;;346490;28;1116;-68
2021/06/05 00:36:10;;;;;;;8.50;7.00;;;;;;;;;;346259;28;1117;-68
2021/06/05 00:36:22;;;;;;;7.47;6.72;;;;;;;;;;346127;28;16612;-69
2021/06/05 00:36:35;;;;;;;7.80;6.57;;;;;;;;;;346346;28;1133;-68
2021/06/05 00:36:47;;;;;;;8.10;6.70;;;;;;;;;;346357;28;1112;-68
2021/06/05 00:36:59;;;;;;;7.25;6.47;;;;;;;;;;346302;28;982;-69
2021/06/05 00:37:11;;;;;;;7.15;6.45;;;;;;;;;;346332;28;1308;-75
2021/06/05 00:37:23;;;;;;;7.28;6.47;;;;;;;;;;346364;28;1216;-68
2021/06/05 00:37:36;;;;;;;7.53;6.50;;;;;;;;;;346388;28;1107;-70
2021/06/05 00:37:48;;;;;;;7.22;6.20;;;;;;;;;;346426;28;967;-70
2021/06/05 00:38:01;;;;;;;6.90;6.20;;;;;;;;;;346575;28;1274;-69
2021/06/05 00:38:13;;;;;;;6.60;6.00;;;;;;;;;;346382;28;1090;-69
2021/06/05 00:38:25;;;;;;;6.53;5.88;;;;;;;;;;346572;28;1143;-72
2021/06/05 00:38:38;;;;;;;6.75;6.05;;;;;;;;;;346067;28;1015;-68
2021/06/05 00:38:50;;;;;;;6.97;6.20;;;;;;;;;;346681;28;1101;-68
2021/06/05 00:39:03;;;;;;;6.88;6.13;;;;;;;;;;346572;28;1195;-69
2021/06/05 00:39:15;;;;;;;6.90;6.20;;;;;;;;;;346400;28;1109;-67
2021/06/05 00:39:27;;;;;;;6.78;6.08;;;;;;;;;;346573;28;1089;-67
2021/06/05 00:39:39;;;;;;;6.70;6.00;;;;;;;;;;346216;28;1173;-68
2021/06/05 00:39:51;;;;;;;6.88;6.15;;;;;;;;;;346429;28;1246;-68
2021/06/05 00:40:05;;;;;;;6.93;6.22;;;;;;;;;;346528;28;1112;-68
2021/06/05 00:40:18;;;;;;;7.25;6.15;;;;;;;;;;346683;28;1110;-69
2021/06/05 00:40:31;;;;;;;7.22;6.25;;;;;;;;;;345750;28;17112;-68
2021/06/05 00:40:46;;;;;;;6.95;6.25;;;;;;;;;;346480;28;1046;-69
2021/06/05 00:40:59;;;;;;;7.15;6.43;;;;;;;;;;345323;28;40138;-68
2021/06/05 00:41:15;;;;;;;7.42;6.72;;;;;;;;;;346214;28;1231;-69
2021/06/05 00:41:27;;;;;;;8.07;7.13;;;;;;;;;;344347;28;63861;-67
2021/06/05 00:41:39;;;;;;;7.78;6.97;;;;;;;;;;346456;28;1006;-68
2021/06/05 00:41:52;;;;;;;7.68;6.88;;;;;;;;;;346623;28;1117;-68
2021/06/05 00:42:04;;;;;;;7.32;6.63;;;;;;;;;;346505;28;1254;-68
2021/06/05 00:42:16;;;;;;;7.40;6.70;;;;;;;;;;346682;28;1211;-71
2021/06/05 00:42:28;;;;;;;7.95;7.15;;;;;;;;;;346562;28;1042;-69
2021/06/05 00:42:40;;;;;;;8.20;7.40;;;;;;;;;;346238;28;1220;-69
2021/06/05 00:42:53;;;;;;;8.05;7.25;;;;;;;;;;346594;28;1359;-68
2021/06/05 00:43:06;;;;;;;7.63;6.85;;;;;;;;;;344972;28;1295;-68
2021/06/05 00:43:20;;;;;;;7.93;7.13;;;;;;;;;;344958;28;1224;-69
2021/06/05 00:43:36;;;;;;;8.50;7.60;;;;;;;;;;344689;28;16767;-69
2021/06/05 00:43:50;;;;;;;8.45;7.55;;;;;;;;;;342966;28;64002;-69
2021/06/05 00:44:04;;;;;;;8.63;7.65;;;;;;;;;;344480;28;15851;-68
2021/06/05 00:44:17;;;;;;;8.45;7.60;;;;;;;;;;344465;28;16984;-69
2021/06/05 00:44:29;;;;;;;8.63;7.82;;;;;;;;;;345111;28;1188;-69
2021/06/05 00:44:41;;;;;;;8.98;8.07;;;;;;;;;;344894;28;1233;-69
2021/06/05 00:44:53;;;;;;;8.43;7.50;;;;;;;;;;345142;28;1071;-69
2021/06/05 00:45:08;;;;;;;8.40;7.55;;;;;;;;;;344960;28;1085;-69
2021/06/05 00:45:21;;;;;;;8.77;7.88;;;;;;;;;;344666;28;40187;-69
2021/06/05 00:45:35;;;;;;;8.60;7.80;;;;;;;;;;344689;28;16777;-68
2021/06/05 00:45:48;;;;;;;9.00;8.10;;;;;;;;;;344437;28;16623;-68
2021/06/05 00:46:00;;;;;;;9.20;8.30;;;;;;;;;;344836;28;1480;-68
2021/06/05 00:46:12;;;;;;;9.15;8.25;;;;;;;;;;344948;28;1224;-68
2021/06/05 00:46:26;;;;;;;9.75;8.50;;;;;;;;;;344995;28;1183;-69
2021/06/05 00:46:38;;;;;;;10.18;8.70;;;;;;;;;;344576;28;17256;-68
2021/06/05 00:46:51;;;;;;;9.88;8.63;;;;;;;;;;344955;28;1090;-69
2021/06/05 00:47:03;;;;;;;9.38;8.32;;;;;;;;;;344953;28;1065;-70
2021/06/05 00:47:16;;;;;;;9.23;8.27;;;;;;;;;;345004;28;1111;-69
2021/06/05 00:47:28;;;;;;;9.50;8.60;;;;;;;;;;345163;28;987;-69
2021/06/05 00:47:40;;;;;;;9.55;8.57;;;;;;;;;;344974;28;1066;-69
2021/06/05 00:47:53;;;;;;;9.20;8.27;;;;;;;;;;344726;28;1019;-69
2021/06/05 00:48:06;;;;;;;9.43;8.43;;;;;;;;;;344838;28;1000;-68
2021/06/05 00:48:19;;;;;;;10.15;9.13;;;;;;;;;;345053;28;1157;-69
2021/06/05 00:48:32;;;;;;;10.30;9.23;;;;;;;;;;345058;28;1334;-70
2021/06/05 00:48:44;;;;;;;9.82;8.82;;;;;;;;;;343404;28;1022;-69
2021/06/05 00:48:56;;;;;;;9.93;8.68;;;;;;;;;;343888;28;1150;-69
2021/06/05 00:49:09;;;;;;;10.20;9.02;;;;;;;;;;344874;28;1185;-69
2021/06/05 00:49:21;;;;;;;9.98;8.98;;;;;;;;;;345117;28;1082;-70
2021/06/05 00:49:33;;;;;;;9.75;8.75;;;;;;;;;;345177;28;1043;-69
2021/06/05 00:49:45;;;;;;;9.80;8.80;;;;;;;;;;344963;28;1112;-68
2021/06/05 00:49:58;;;;;;;9.63;8.73;;;;;;;;;;345221;28;1014;-69
2021/06/05 00:50:10;;;;;;;9.85;8.85;;;;;;;;;;345076;28;1057;-69
2021/06/05 00:50:23;;;;;;;10.05;8.75;;;;;;;;;;346381;28;1026;-70
2021/06/05 00:50:35;;;;;;;10.55;8.90;;;;;;;;;;346569;28;983;-69
2021/06/05 00:50:49;;;;;;;9.57;8.57;;;;;;;;;;346463;28;1035;-69
2021/06/05 00:51:01;;;;;;;9.75;8.75;;;;;;;;;;345919;28;17284;-67
2021/06/05 00:51:13;;;;;;;10.08;8.82;;;;;;;;;;346369;28;991;-69
2021/06/05 00:51:45;;;;;;;10.35;9.00;;;;;;;;;;346476;28;1079;-69
2021/06/05 00:52:01;;;;;;;9.40;8.25;;;;;;;;;;344393;28;62207;-69
2021/06/05 00:52:15;;;;;;;9.43;8.35;;;;;;;;;;345057;28;41095;-69
2021/06/05 00:52:28;;;;;;;9.35;8.35;;;;;;;;;;345231;28;39665;-69
2021/06/05 00:52:43;;;;;;;9.27;8.27;;;;;;;;;;346108;28;1017;-69
2021/06/05 00:52:56;;;;;;;9.93;8.45;;;;;;;;;;345235;28;41415;-68
2021/06/05 00:53:10;;;;;;;10.57;8.57;;;;;;;;;;345844;28;16610;-69
2021/06/05 00:53:24;;;;;;;10.20;8.63;;;;;;;;;;346647;28;1129;-69
2021/06/05 00:53:36;;;;;;;9.35;8.43;;;;;;;;;;345635;28;16864;-69
2021/06/05 00:53:48;;;;;;;9.40;8.48;;;;;;;;;;346455;28;1082;-68
2021/06/05 00:54:01;;;;;;;9.13;8.23;;;;;;;;;;346383;28;1664;-69
2021/06/05 00:54:14;;;;;;;9.25;8.25;;;;;;;;;;346374;28;1059;-68
2021/06/05 00:54:26;;;;;;;9.38;8.38;;;;;;;;;;346397;28;1088;-69
2021/06/05 00:54:38;;;;;;;8.95;8.02;;;;;;;;;;346291;28;1145;-68
2021/06/05 00:54:50;;;;;;;8.77;7.88;;;;;;;;;;346557;28;1077;-69
2021/06/05 00:55:05;;;;;;;8.65;7.75;;;;;;;;;;346385;28;1094;-69
2021/06/05 00:55:18;;;;;;;8.05;7.25;;;;;;;;;;345005;28;41135;-70
2021/06/05 00:55:33;;;;;;;8.70;7.82;;;;;;;;;;346378;28;1109;-69
2021/06/05 00:55:47;;;;;;;9.00;8.05;;;;;;;;;;345896;28;17123;-69
2021/06/05 00:56:00;;;;;;;9.30;7.65;;;;;;;;;;345134;28;40327;-69
2021/06/05 00:56:13;;;;;;;8.60;7.70;;;;;;;;;;346344;28;1207;-68
2021/06/05 00:56:26;;;;;;;8.27;7.43;;;;;;;;;;346131;28;1157;-69
2021/06/05 00:56:39;;;;;;;8.63;7.65;;;;;;;;;;345032;28;1199;-68
2021/06/05 00:56:53;;;;;;;8.55;7.63;;;;;;;;;;345017;28;1086;-68
2021/06/05 00:57:06;;;;;;;8.35;7.45;;;;;;;;;;343778;28;40105;-69
2021/06/05 00:57:18;;;;;;;8.63;7.72;;;;;;;;;;344912;28;1051;-69
2021/06/05 00:57:30;;;;;;;8.68;7.78;;;;;;;;;;345168;28;1192;-69
2021/06/05 00:57:43;;;;;;;8.63;7.72;;;;;;;;;;345139;28;1100;-69
2021/06/05 00:57:55;;;;;;;8.98;7.50;;;;;;;;;;345051;28;1199;-69
2021/06/05 00:58:08;;;;;;;8.57;7.40;;;;;;;;;;345017;28;990;-69
2021/06/05 00:58:20;;;;;;;8.52;7.53;;;;;;;;;;345044;28;1144;-68
2021/06/05 00:58:32;;;;;;;8.50;7.60;;;;;;;;;;345073;28;1070;-70
2021/06/05 00:58:44;;;;;;;8.23;7.43;;;;;;;;;;345051;28;1229;-69
2021/06/05 00:58:57;;;;;;;8.23;7.43;;;;;;;;;;344955;28;1148;-69
2021/06/05 00:59:09;;;;;;;8.40;7.55;;;;;;;;;;344631;28;1252;-69
2021/06/05 00:59:22;;;;;;;8.23;7.43;;;;;;;;;;344951;28;983;-69
2021/06/05 00:59:35;;;;;;;8.57;7.43;;;;;;;;;;345299;28;1015;-69
2021/06/05 00:59:47;;;;;;;8.93;7.32;;;;;;;;;;346184;28;1265;-68
2021/06/05 00:59:59;;;;;;;9.63;7.40;;;;;;;;;;346268;28;1086;-69
2021/06/05 01:00:33;;;;;;;9.15;7.60;;;;;;;;;;345930;28;1137;-68
2021/06/05 01:00:48;;;;;;;8.98;8.07;;;;;;;;;;344500;28;63567;-68
2021/06/05 01:01:09;;;;;;;8.90;8.00;;;;;;;;;;344501;28;15280;-68
2021/06/05 01:01:23;;;;;;;10.55;8.57;;;;;;;;;;343078;28;63624;-69
2021/06/05 01:01:35;;;;;;;10.82;8.73;;;;;;;;;;344486;28;17069;-68
2021/06/05 01:01:48;;;;;;;10.32;8.57;;;;;;;;;;345259;28;1073;-68
2021/06/05 01:02:00;;;;;;;10.32;8.43;;;;;;;;;;344897;28;1130;-68
2021/06/05 01:02:12;;;;;;;9.57;8.50;;;;;;;;;;344777;28;1129;-68
2021/06/05 01:02:24;;;;;;;9.90;8.88;;;;;;;;;;345231;28;991;-69
2021/06/05 01:02:36;;;;;;;10.32;9.25;;;;;;;;;;344728;28;1918;-69
2021/06/05 01:02:49;;;;;;;11.93;9.75;;;;;;;;;;345098;28;1066;-68
2021/06/05 01:03:02;;;;;;;11.95;9.77;;;;;;;;;;345828;28;1297;-69
2021/06/05 01:03:15;;;;;;;11.06;9.52;;;;;;;;;;346660;28;1258;-69
2021/06/05 01:03:27;;;;;;;10.40;9.30;;;;;;;;;;346508;28;1059;-68
2021/06/05 01:03:40;;;;;;;11.15;9.93;;;;;;;;;;346380;28;1082;-70
2021/06/05 01:03:52;;;;;;;12.30;10.43;;;;;;;;;;346530;28;1065;-69
2021/06/05 01:04:05;;;;;;;12.40;10.50;;;;;;;;;;346435;28;1026;-68
2021/06/05 01:04:17;;;;;;;11.35;10.15;;;;;;;;;;346500;28;1097;-69
2021/06/05 01:04:30;;;;;;;11.63;10.40;;;;;;;;;;346491;28;1110;-68
2021/06/05 01:04:43;;;;;;;12.63;10.80;;;;;;;;;;346352;28;994;-69
2021/06/05 01:04:55;;;;;;;12.30;10.57;;;;;;;;;;346430;28;1101;-71
2021/06/05 01:05:07;;;;;;;11.80;10.45;;;;;;;;;;344915;28;1204;-69
2021/06/05 01:05:20;;;;;;;12.60;10.80;;;;;;;;;;345308;28;1238;-69
2021/06/05 01:05:33;;;;;;;12.75;10.95;;;;;;;;;;345016;28;1265;-69
2021/06/05 01:05:46;;;;;;;12.73;11.30;;;;;;;;;;344543;28;1224;-69
2021/06/05 01:06:03;;;;;;;14.13;11.27;;;;;;;;;;345041;28;1324;-69
2021/06/05 01:06:27;;;;;;;13.43;10.63;;;;;;;;;;341573;28;63414;-68
2021/06/05 01:06:51;;;;;;;12.65;10.82;;;;;;;;;;340097;28;64739;-69
2021/06/05 01:07:06;;;;;;;13.10;11.13;;;;;;;;;;340557;28;63547;-68
2021/06/05 01:07:22;;;;;;;12.48;10.65;;;;;;;;;;342518;28;40133;-69
2021/06/05 01:07:34;;;;;;;11.80;10.45;;;;;;;;;;342412;28;41348;-69
2021/06/05 01:07:47;;;;;;;12.07;10.75;;;;;;;;;;343602;28;1047;-70
2021/06/05 01:08:13;;;;;;;11.75;10.52;;;;;;;;;;343916;28;1137;-68
2021/06/05 01:08:36;;;;;;;12.43;10.20;;;;;;;;;;342873;28;62636;-69
2021/06/05 01:08:58;;;;;;;11.15;9.63;;;;;;;;;;344474;28;62812;-68
2021/06/05 01:09:32;;;;;;;11.80;9.95;;;;;;;;;;344447;28;63771;-69
2021/06/05 01:10:00;;;;;;;9.88;8.80;;;;;;;;;;344377;28;64667;-69
2021/06/05 01:10:18;;;;;;;10.50;9.35;;;;;;;;;;344031;28;64666;-69
2021/06/05 01:10:32;;;;;;;13.68;9.85;;;;;;;;;;344083;28;64941;-69
2021/06/05 01:10:46;;;;;;;13.13;9.27;;;;;;;;;;345042;28;41212;-68
2021/06/05 01:11:06;;;;;;;10.10;8.77;;;;;;;;;;346141;28;18167;-69
2021/06/05 01:11:18;;;;;;;11.48;8.88;;;;;;;;;;344518;28;63394;-68
2021/06/05 01:11:45;;;;;;;12.43;8.82;;;;;;;;;;346341;28;1015;-68
2021/06/05 01:12:00;;;;;;;10.45;8.60;;;;;;;;;;344330;28;63528;-68
2021/06/05 01:12:25;;;;;;;10.60;8.55;;;;;;;;;;344949;28;40877;-77
2021/06/05 01:12:37;;;;;;;10.13;8.65;;;;;;;;;;344349;28;63816;-68
2021/06/05 01:13:02;;;;;;;10.30;8.70;;;;;;;;;;346517;28;1114;-73
2021/06/05 01:13:17;;;;;;;10.93;8.73;;;;;;;;;;344140;28;63555;-69
2021/06/05 01:13:59;;;;;;;10.35;8.52;;;;;;;;;;345155;28;40139;-68
2021/06/05 01:14:22;;;;;;;10.23;9.10;;;;;;;;;;340215;28;64622;-68
2021/06/05 01:14:34;;;;;;;10.98;8.73;;;;;;;;;;341448;28;63615;-69
2021/06/05 01:15:05;;;;;;;10.57;8.50;;;;;;;;;;346498;28;1065;-68
2021/06/05 01:15:22;;;;;;;10.12;8.48;;;;;;;;;;343408;28;87761;-69
2021/06/05 01:15:46;;;;;;;10.68;8.88;;;;;;;;;;344279;28;63944;-69
2021/06/05 01:16:00;;;;;;;9.82;8.77;;;;;;;;;;344318;28;64655;-67
2021/06/05 01:16:14;;;;;;;9.88;8.30;;;;;;;;;;344934;28;41287;-70
2021/06/05 01:16:28;;;;;;;11.46;8.36;;;;;;;;;;346555;28;1061;-68
2021/06/05 01:16:42;;;;;;;10.43;8.23;;;;;;;;;;346354;28;1060;-68
2021/06/05 01:16:59;;;;;;;9.43;8.25;;;;;;;;;;345044;28;40456;-68
2021/06/05 01:17:15;;;;;;;10.05;8.23;;;;;;;;;;344167;28;63039;-70
2021/06/05 01:17:29;;;;;;;11.02;8.27;;;;;;;;;;344340;28;62555;-68
2021/06/05 01:17:43;;;;;;;10.80;8.40;;;;;;;;;;345742;28;16961;-68
2021/06/05 01:18:19;;;;;;;9.63;8.52;;;;;;;;;;346016;28;18313;-69
2021/06/05 01:18:33;;;;;;;10.95;8.93;;;;;;;;;;341308;28;63719;-68
2021/06/05 01:18:54;;;;;;;10.75;9.02;;;;;;;;;;343635;28;40887;-68
2021/06/05 01:19:09;;;;;;;11.30;9.38;;;;;;;;;;344278;28;63384;-68
2021/06/05 01:19:40;;;;;;;11.45;9.90;;;;;;;;;;345370;28;41055;-68
2021/06/05 01:19:55;;;;;;;10.73;9.50;;;;;;;;;;344560;28;63231;-68
2021/06/05 01:20:13;;;;;;;11.13;9.35;;;;;;;;;;345217;28;40440;-67
2021/06/05 01:20:44;;;;;;;11.15;9.50;;;;;;;;;;344280;28;63162;-70
2021/06/05 01:21:06;;;;;;;11.60;9.57;;;;;;;;;;344146;28;64653;-68
2021/06/05 01:21:33;;;;;;;11.07;9.68;;;;;;;;;;344395;28;64796;-68
2021/06/05 01:22:03;;;;;;;12.07;9.90;;;;;;;;;;343408;28;87619;-68
2021/06/05 01:22:25;;;;;;;13.55;11.25;;;;;;;;;;344244;28;63175;-68
2021/06/05 01:22:55;;;;;;;14.60;11.18;;;;;;;;;;344138;28;63610;-68
2021/06/05 01:23:14;;;;;;;12.13;10.27;;;;;;;;;;344296;28;64601;-68
2021/06/05 01:23:29;;;;;;;13.00;11.18;;;;;;;;;;344207;28;64275;-67
2021/06/05 01:23:59;;;;;;;13.00;11.13;;;;;;;;;;344949;28;41315;-69
2021/06/05 01:24:19;;;;;;;13.07;10.45;;;;;;;;;;344318;28;64907;-68
2021/06/05 01:24:31;;;;;;;11.88;9.96;;;;;;;;;;343325;28;87860;-67
2021/06/05 01:25:02;;;;;;;12.15;9.88;;;;;;;;;;346157;28;1214;-67
2021/06/05 01:25:23;;;;;;;13.00;10.52;;;;;;;;;;344539;28;63214;-68
2021/06/05 01:25:57;;;;;;;12.82;10.23;;;;;;;;;;344430;28;64413;-68
2021/06/05 01:26:21;;;;;;;11.27;10.07;;;;;;;;;;344178;28;63726;-68
2021/06/05 01:26:34;;;;;;;13.02;10.50;;;;;;;;;;344363;28;63599;-68
2021/06/05 01:26:53;;;;;;;13.75;10.77;;;;;;;;;;346480;28;1081;-69
2021/06/05 01:27:09;;;;;;;12.25;10.27;;;;;;;;;;342735;28;64558;-68
2021/06/05 01:27:23;;;;;;;12.38;9.93;;;;;;;;;;343600;28;40900;-68
2021/06/05 01:27:38;;;;;;;12.45;9.98;;;;;;;;;;343579;28;40111;-68
2021/06/05 01:28:00;;;;;;;11.95;9.95;;;;;;;;;;343646;28;41129;-69
2021/06/05 01:28:16;;;;;;;12.00;9.68;;;;;;;;;;342795;28;62587;-68